sensor_id;sensor_type;location;lat;lon;timestamp;temperature;humidity
65472;DHT22;52068;50.710;14.492;2023-08-12T00:01:51;23.95;52.61
65472;DHT22;52068;50.710;14.492;2023-08-12T00:04:16;23.92;52.59
65472;DHT22;52068;50.710;14.492;2023-08-12T00:06:42;23.92;52.63
65472;DHT22;52068;50.710;14.492;2023-08-12T00:09:07;23.95;52.61
65472;DHT22;52068;50.710;14.492;2023-08-12T00:11:34;23.89;52.63
65472;DHT22;52068;50.710;14.492;2023-08-12T00:14:00;23.90;52.66
65472;DHT22;52068;50.710;14.492;2023-08-12T00:16:25;23.90;52.65
65472;DHT22;52068;50.710;14.492;2023-08-12T00:18:51;23.92;52.70
65472;DHT22;52068;50.710;14.492;2023-08-12T00:21:16;23.90;52.74
65472;DHT22;52068;50.710;14.492;2023-08-12T00:23:42;23.89;52.70
65472;DHT22;52068;50.710;14.492;2023-08-12T00:26:08;23.89;52.71
65472;DHT22;52068;50.710;14.492;2023-08-12T00:28:34;23.88;52.76
65472;DHT22;52068;50.710;14.492;2023-08-12T00:30:59;23.89;52.73
65472;DHT22;52068;50.710;14.492;2023-08-12T00:33:25;23.86;52.73
65472;DHT22;52068;50.710;14.492;2023-08-12T00:35:50;23.89;52.75
65472;DHT22;52068;50.710;14.492;2023-08-12T00:38:16;23.86;52.78
65472;DHT22;52068;50.710;14.492;2023-08-12T00:40:41;23.85;52.76
65472;DHT22;52068;50.710;14.492;2023-08-12T00:43:06;23.85;52.76
65472;DHT22;52068;50.710;14.492;2023-08-12T00:45:33;23.86;52.81
65472;DHT22;52068;50.710;14.492;2023-08-12T00:47:59;23.84;52.77
65472;DHT22;52068;50.710;14.492;2023-08-12T00:50:25;23.84;52.81
65472;DHT22;52068;50.710;14.492;2023-08-12T00:52:51;23.84;52.92
65472;DHT22;52068;50.710;14.492;2023-08-12T00:55:17;23.82;52.87
65472;DHT22;52068;50.710;14.492;2023-08-12T00:57:43;23.84;52.87
65472;DHT22;52068;50.710;14.492;2023-08-12T01:00:09;23.84;52.91
65472;DHT22;52068;50.710;14.492;2023-08-12T01:02:34;23.82;52.91
65472;DHT22;52068;50.710;14.492;2023-08-12T01:05:00;23.82;52.94
65472;DHT22;52068;50.710;14.492;2023-08-12T01:07:25;23.84;52.84
65472;DHT22;52068;50.710;14.492;2023-08-12T01:09:51;23.82;52.88
65472;DHT22;52068;50.710;14.492;2023-08-12T01:15:16;23.82;52.87
65472;DHT22;52068;50.710;14.492;2023-08-12T01:17:46;23.82;52.86
65472;DHT22;52068;50.710;14.492;2023-08-12T01:20:17;23.81;52.85
65472;DHT22;52068;50.710;14.492;2023-08-12T01:22:55;23.78;52.87
65472;DHT22;52068;50.710;14.492;2023-08-12T01:25:21;23.76;52.84
65472;DHT22;52068;50.710;14.492;2023-08-12T01:27:46;23.78;52.82
65472;DHT22;52068;50.710;14.492;2023-08-12T01:30:12;23.78;52.87
65472;DHT22;52068;50.710;14.492;2023-08-12T01:32:54;23.76;52.87
65472;DHT22;52068;50.710;14.492;2023-08-12T01:35:28;23.79;52.85
65472;DHT22;52068;50.710;14.492;2023-08-12T01:37:57;23.76;52.88
65472;DHT22;52068;50.710;14.492;2023-08-12T01:40:24;23.79;52.90
65472;DHT22;52068;50.710;14.492;2023-08-12T01:42:50;23.76;52.86
65472;DHT22;52068;50.710;14.492;2023-08-12T01:45:18;23.78;52.88
65472;DHT22;52068;50.710;14.492;2023-08-12T01:47:44;23.75;52.87
65472;DHT22;52068;50.710;14.492;2023-08-12T01:50:10;23.75;52.87
65472;DHT22;52068;50.710;14.492;2023-08-12T01:52:35;23.76;52.85
65472;DHT22;52068;50.710;14.492;2023-08-12T01:55:01;23.76;52.85
65472;DHT22;52068;50.710;14.492;2023-08-12T01:57:26;23.75;52.83
65472;DHT22;52068;50.710;14.492;2023-08-12T01:59:51;23.76;52.88
65472;DHT22;52068;50.710;14.492;2023-08-12T02:02:17;23.75;52.81
65472;DHT22;52068;50.710;14.492;2023-08-12T02:04:42;23.76;52.84
65472;DHT22;52068;50.710;14.492;2023-08-12T02:07:09;23.76;52.91
65472;DHT22;52068;50.710;14.492;2023-08-12T02:09:34;23.75;52.84
65472;DHT22;52068;50.710;14.492;2023-08-12T02:12:00;23.75;52.87
65472;DHT22;52068;50.710;14.492;2023-08-12T02:14:25;23.76;52.81
65472;DHT22;52068;50.710;14.492;2023-08-12T02:16:50;23.75;52.83
65472;DHT22;52068;50.710;14.492;2023-08-12T02:19:16;23.75;52.88
65472;DHT22;52068;50.710;14.492;2023-08-12T02:21:42;23.72;52.83
65472;DHT22;52068;50.710;14.492;2023-08-12T02:24:08;23.75;52.86
65472;DHT22;52068;50.710;14.492;2023-08-12T02:26:33;23.72;52.89
65472;DHT22;52068;50.710;14.492;2023-08-12T02:28:59;23.72;52.97
65472;DHT22;52068;50.710;14.492;2023-08-12T02:31:24;23.74;52.91
65472;DHT22;52068;50.710;14.492;2023-08-12T02:33:50;23.72;52.92
65472;DHT22;52068;50.710;14.492;2023-08-12T02:36:15;23.71;52.93
65472;DHT22;52068;50.710;14.492;2023-08-12T02:38:41;23.71;52.95
65472;DHT22;52068;50.710;14.492;2023-08-12T02:41:06;23.69;52.87
65472;DHT22;52068;50.710;14.492;2023-08-12T02:43:31;23.71;52.91
65472;DHT22;52068;50.710;14.492;2023-08-12T02:45:57;23.72;52.90
65472;DHT22;52068;50.710;14.492;2023-08-12T02:48:22;23.69;52.89
65472;DHT22;52068;50.710;14.492;2023-08-12T02:50:48;23.69;52.81
65472;DHT22;52068;50.710;14.492;2023-08-12T02:53:14;23.72;52.90
65472;DHT22;52068;50.710;14.492;2023-08-12T02:55:40;23.68;52.97
65472;DHT22;52068;50.710;14.492;2023-08-12T02:58:05;23.68;52.88
65472;DHT22;52068;50.710;14.492;2023-08-12T03:00:30;23.69;52.97
65472;DHT22;52068;50.710;14.492;2023-08-12T03:02:56;23.71;52.94
65472;DHT22;52068;50.710;14.492;2023-08-12T03:05:22;23.69;52.90
65472;DHT22;52068;50.710;14.492;2023-08-12T03:07:47;23.69;53.00
65472;DHT22;52068;50.710;14.492;2023-08-12T03:10:13;23.66;53.00
65472;DHT22;52068;50.710;14.492;2023-08-12T03:12:38;23.68;53.02
65472;DHT22;52068;50.710;14.492;2023-08-12T03:15:06;23.66;53.01
65472;DHT22;52068;50.710;14.492;2023-08-12T03:17:31;23.68;53.06
65472;DHT22;52068;50.710;14.492;2023-08-12T03:19:57;23.66;53.04
65472;DHT22;52068;50.710;14.492;2023-08-12T03:22:25;23.68;53.02
65472;DHT22;52068;50.710;14.492;2023-08-12T03:24:50;23.68;53.06
65472;DHT22;52068;50.710;14.492;2023-08-12T03:27:15;23.66;53.10
65472;DHT22;52068;50.710;14.492;2023-08-12T03:29:41;23.66;53.02
65472;DHT22;52068;50.710;14.492;2023-08-12T03:32:06;23.65;53.15
65472;DHT22;52068;50.710;14.492;2023-08-12T03:34:31;23.66;53.07
65472;DHT22;52068;50.710;14.492;2023-08-12T03:36:57;23.66;53.06
65472;DHT22;52068;50.710;14.492;2023-08-12T03:39:22;23.64;53.07
65472;DHT22;52068;50.710;14.492;2023-08-12T03:41:47;23.64;53.13
65472;DHT22;52068;50.710;14.492;2023-08-12T03:44:15;23.65;53.08
65472;DHT22;52068;50.710;14.492;2023-08-12T03:46:40;23.61;53.12
65472;DHT22;52068;50.710;14.492;2023-08-12T03:49:06;23.65;53.06
65472;DHT22;52068;50.710;14.492;2023-08-12T03:51:31;23.66;53.17
65472;DHT22;52068;50.710;14.492;2023-08-12T03:53:57;23.64;53.08
65472;DHT22;52068;50.710;14.492;2023-08-12T03:56:23;23.64;53.15
65472;DHT22;52068;50.710;14.492;2023-08-12T03:58:48;23.64;53.09
65472;DHT22;52068;50.710;14.492;2023-08-12T04:01:13;23.64;53.11
65472;DHT22;52068;50.710;14.492;2023-08-12T04:03:39;23.62;53.07
65472;DHT22;52068;50.710;14.492;2023-08-12T04:06:04;23.64;53.01
65472;DHT22;52068;50.710;14.492;2023-08-12T04:08:29;23.62;53.05
65472;DHT22;52068;50.710;14.492;2023-08-12T04:10:57;23.62;53.12
65472;DHT22;52068;50.710;14.492;2023-08-12T04:13:22;23.62;53.12
65472;DHT22;52068;50.710;14.492;2023-08-12T04:15:51;23.61;53.06
65472;DHT22;52068;50.710;14.492;2023-08-12T04:18:18;23.62;53.03
65472;DHT22;52068;50.710;14.492;2023-08-12T04:20:53;23.64;53.15
65472;DHT22;52068;50.710;14.492;2023-08-12T04:23:19;23.64;53.05
65472;DHT22;52068;50.710;14.492;2023-08-12T04:25:46;23.62;53.05
65472;DHT22;52068;50.710;14.492;2023-08-12T04:28:12;23.64;53.04
65472;DHT22;52068;50.710;14.492;2023-08-12T04:30:46;23.62;53.19
65472;DHT22;52068;50.710;14.492;2023-08-12T04:33:13;23.62;53.06
65472;DHT22;52068;50.710;14.492;2023-08-12T04:35:39;23.61;53.17
65472;DHT22;52068;50.710;14.492;2023-08-12T04:38:05;23.62;53.12
65472;DHT22;52068;50.710;14.492;2023-08-12T04:40:30;23.62;53.04
65472;DHT22;52068;50.710;14.492;2023-08-12T04:42:57;23.61;53.05
65472;DHT22;52068;50.710;14.492;2023-08-12T04:45:23;23.64;53.11
65472;DHT22;52068;50.710;14.492;2023-08-12T04:47:48;23.64;52.99
65472;DHT22;52068;50.710;14.492;2023-08-12T04:50:13;23.62;53.04
65472;DHT22;52068;50.710;14.492;2023-08-12T04:52:39;23.61;53.11
65472;DHT22;52068;50.710;14.492;2023-08-12T04:55:05;23.61;53.09
65472;DHT22;52068;50.710;14.492;2023-08-12T04:57:30;23.59;53.15
65472;DHT22;52068;50.710;14.492;2023-08-12T04:59:56;23.59;53.18
65472;DHT22;52068;50.710;14.492;2023-08-12T05:02:21;23.64;53.16
65472;DHT22;52068;50.710;14.492;2023-08-12T05:04:51;23.61;53.18
65472;DHT22;52068;50.710;14.492;2023-08-12T05:07:16;23.61;53.14
65472;DHT22;52068;50.710;14.492;2023-08-12T05:09:42;23.61;53.17
65472;DHT22;52068;50.710;14.492;2023-08-12T05:12:10;23.61;53.22
65472;DHT22;52068;50.710;14.492;2023-08-12T05:14:35;23.61;53.20
65472;DHT22;52068;50.710;14.492;2023-08-12T05:17:00;23.59;53.21
65472;DHT22;52068;50.710;14.492;2023-08-12T05:19:26;23.61;53.18
65472;DHT22;52068;50.710;14.492;2023-08-12T05:21:51;23.59;53.25
65472;DHT22;52068;50.710;14.492;2023-08-12T05:24:16;23.61;53.24
65472;DHT22;52068;50.710;14.492;2023-08-12T05:26:42;23.61;53.25
65472;DHT22;52068;50.710;14.492;2023-08-12T05:29:07;23.64;53.26
65472;DHT22;52068;50.710;14.492;2023-08-12T05:31:33;23.62;53.26
65472;DHT22;52068;50.710;14.492;2023-08-12T05:33:58;23.62;53.28
65472;DHT22;52068;50.710;14.492;2023-08-12T05:36:23;23.62;53.28
65472;DHT22;52068;50.710;14.492;2023-08-12T05:38:49;23.62;53.33
65472;DHT22;52068;50.710;14.492;2023-08-12T05:41:14;23.62;53.26
65472;DHT22;52068;50.710;14.492;2023-08-12T05:43:39;23.62;53.46
65472;DHT22;52068;50.710;14.492;2023-08-12T05:46:05;23.64;53.36
65472;DHT22;52068;50.710;14.492;2023-08-12T05:48:30;23.64;53.58
65472;DHT22;52068;50.710;14.492;2023-08-12T05:50:55;23.64;53.53
65472;DHT22;52068;50.710;14.492;2023-08-12T05:53:21;23.65;53.43
65472;DHT22;52068;50.710;14.492;2023-08-12T05:55:47;23.64;53.35
65472;DHT22;52068;50.710;14.492;2023-08-12T05:58:12;23.64;53.34
65472;DHT22;52068;50.710;14.492;2023-08-12T06:00:38;23.65;53.29
65472;DHT22;52068;50.710;14.492;2023-08-12T06:03:03;23.65;53.30
65472;DHT22;52068;50.710;14.492;2023-08-12T06:05:29;23.66;53.25
65472;DHT22;52068;50.710;14.492;2023-08-12T06:07:54;23.66;53.28
65472;DHT22;52068;50.710;14.492;2023-08-12T06:10:19;23.66;53.55
65472;DHT22;52068;50.710;14.492;2023-08-12T06:12:45;23.68;53.30
65472;DHT22;52068;50.710;14.492;2023-08-12T06:15:10;23.65;52.81
65472;DHT22;52068;50.710;14.492;2023-08-12T06:17:36;23.65;52.61
65472;DHT22;52068;50.710;14.492;2023-08-12T06:20:01;23.58;52.54
65472;DHT22;52068;50.710;14.492;2023-08-12T06:22:27;23.50;52.61
65472;DHT22;52068;50.710;14.492;2023-08-12T06:24:52;23.44;52.83
65472;DHT22;52068;50.710;14.492;2023-08-12T06:27:18;23.41;53.17
65472;DHT22;52068;50.710;14.492;2023-08-12T06:29:45;23.40;53.35
65472;DHT22;52068;50.710;14.492;2023-08-12T06:32:11;23.38;53.42
65472;DHT22;52068;50.710;14.492;2023-08-12T06:34:38;23.40;53.66
65472;DHT22;52068;50.710;14.492;2023-08-12T06:37:03;23.45;53.81
65472;DHT22;52068;50.710;14.492;2023-08-12T06:39:29;23.48;53.86
65472;DHT22;52068;50.710;14.492;2023-08-12T06:41:54;23.54;53.89
65472;DHT22;52068;50.710;14.492;2023-08-12T06:44:21;23.54;53.92
65472;DHT22;52068;50.710;14.492;2023-08-12T06:46:46;23.57;53.88
65472;DHT22;52068;50.710;14.492;2023-08-12T06:49:12;23.59;53.93
65472;DHT22;52068;50.710;14.492;2023-08-12T06:51:37;23.65;53.99
65472;DHT22;52068;50.710;14.492;2023-08-12T06:54:03;23.65;54.05
65472;DHT22;52068;50.710;14.492;2023-08-12T06:56:28;23.69;54.05
65472;DHT22;52068;50.710;14.492;2023-08-12T06:58:54;23.74;54.05
65472;DHT22;52068;50.710;14.492;2023-08-12T07:01:19;23.75;54.06
65472;DHT22;52068;50.710;14.492;2023-08-12T07:03:45;23.76;53.69
65472;DHT22;52068;50.710;14.492;2023-08-12T07:06:10;23.81;53.49
65472;DHT22;52068;50.710;14.492;2023-08-12T07:08:36;23.82;53.12
65472;DHT22;52068;50.710;14.492;2023-08-12T07:11:01;23.81;53.06
65472;DHT22;52068;50.710;14.492;2023-08-12T07:13:26;23.84;53.07
65472;DHT22;52068;50.710;14.492;2023-08-12T07:15:52;23.88;52.80
65472;DHT22;52068;50.710;14.492;2023-08-12T07:18:17;23.88;52.71
65472;DHT22;52068;50.710;14.492;2023-08-12T07:20:43;23.90;52.43
65472;DHT22;52068;50.710;14.492;2023-08-12T07:23:08;23.90;52.46
65472;DHT22;52068;50.710;14.492;2023-08-12T07:25:33;23.93;52.36
65472;DHT22;52068;50.710;14.492;2023-08-12T07:28:00;23.93;52.32
65472;DHT22;52068;50.710;14.492;2023-08-12T07:30:25;23.93;52.38
65472;DHT22;52068;50.710;14.492;2023-08-12T07:32:50;23.95;52.56
65472;DHT22;52068;50.710;14.492;2023-08-12T07:35:16;23.95;52.48
65472;DHT22;52068;50.710;14.492;2023-08-12T07:37:41;23.98;52.51
65472;DHT22;52068;50.710;14.492;2023-08-12T07:40:07;23.98;52.34
65472;DHT22;52068;50.710;14.492;2023-08-12T07:42:34;23.98;52.17
65472;DHT22;52068;50.710;14.492;2023-08-12T07:44:59;24.01;52.37
65472;DHT22;52068;50.710;14.492;2023-08-12T07:47:24;23.99;52.40
65472;DHT22;52068;50.710;14.492;2023-08-12T07:49:50;24.02;52.37
65472;DHT22;52068;50.710;14.492;2023-08-12T07:52:15;24.03;52.42
65472;DHT22;52068;50.710;14.492;2023-08-12T07:54:40;24.06;52.31
65472;DHT22;52068;50.710;14.492;2023-08-12T07:57:06;24.05;52.04
65472;DHT22;52068;50.710;14.492;2023-08-12T07:59:31;24.05;52.14
65472;DHT22;52068;50.710;14.492;2023-08-12T08:01:57;24.08;52.14
65472;DHT22;52068;50.710;14.492;2023-08-12T08:04:22;24.05;52.07
65472;DHT22;52068;50.710;14.492;2023-08-12T08:06:47;24.09;52.10
65472;DHT22;52068;50.710;14.492;2023-08-12T08:09:13;24.10;52.17
65472;DHT22;52068;50.710;14.492;2023-08-12T08:11:38;24.12;52.27
65472;DHT22;52068;50.710;14.492;2023-08-12T08:14:04;24.16;52.18
65472;DHT22;52068;50.710;14.492;2023-08-12T08:16:29;24.16;52.20
65472;DHT22;52068;50.710;14.492;2023-08-12T08:18:54;24.15;52.18
65472;DHT22;52068;50.710;14.492;2023-08-12T08:21:20;24.16;52.29
65472;DHT22;52068;50.710;14.492;2023-08-12T08:23:45;24.16;52.26
65472;DHT22;52068;50.710;14.492;2023-08-12T08:26:11;24.20;52.37
65472;DHT22;52068;50.710;14.492;2023-08-12T08:28:38;24.22;52.35
65472;DHT22;52068;50.710;14.492;2023-08-12T08:31:03;24.24;52.33
65472;DHT22;52068;50.710;14.492;2023-08-12T08:33:29;24.24;52.78
65472;DHT22;52068;50.710;14.492;2023-08-12T08:35:54;24.26;53.04
65472;DHT22;52068;50.710;14.492;2023-08-12T08:38:20;24.26;52.81
65472;DHT22;52068;50.710;14.492;2023-08-12T08:40:45;24.26;52.73
65472;DHT22;52068;50.710;14.492;2023-08-12T08:43:15;24.27;52.67
65472;DHT22;52068;50.710;14.492;2023-08-12T08:45:41;24.26;53.06
65472;DHT22;52068;50.710;14.492;2023-08-12T08:48:08;24.24;53.43
65472;DHT22;52068;50.710;14.492;2023-08-12T08:50:35;24.30;53.28
65472;DHT22;52068;50.710;14.492;2023-08-12T08:53:01;24.26;53.31
65472;DHT22;52068;50.710;14.492;2023-08-12T08:55:28;24.29;53.24
65472;DHT22;52068;50.710;14.492;2023-08-12T08:57:53;24.30;53.07
65472;DHT22;52068;50.710;14.492;2023-08-12T09:00:19;24.30;53.12
65472;DHT22;52068;50.710;14.492;2023-08-12T09:02:49;24.29;53.17
65472;DHT22;52068;50.710;14.492;2023-08-12T09:05:17;24.29;53.12
65472;DHT22;52068;50.710;14.492;2023-08-12T09:07:43;24.26;52.99
65472;DHT22;52068;50.710;14.492;2023-08-12T09:10:10;24.27;53.35
65472;DHT22;52068;50.710;14.492;2023-08-12T09:12:36;24.29;53.06
65472;DHT22;52068;50.710;14.492;2023-08-12T09:15:01;24.26;53.19
65472;DHT22;52068;50.710;14.492;2023-08-12T09:17:27;24.26;53.22
65472;DHT22;52068;50.710;14.492;2023-08-12T09:19:52;24.26;53.27
65472;DHT22;52068;50.710;14.492;2023-08-12T09:22:18;24.26;53.31
65472;DHT22;52068;50.710;14.492;2023-08-12T09:24:43;24.27;53.87
65472;DHT22;52068;50.710;14.492;2023-08-12T09:27:09;24.27;53.76
65472;DHT22;52068;50.710;14.492;2023-08-12T09:29:35;24.27;53.53
65472;DHT22;52068;50.710;14.492;2023-08-12T09:32:11;24.27;53.97
65472;DHT22;52068;50.710;14.492;2023-08-12T09:34:47;24.29;53.97
65472;DHT22;52068;50.710;14.492;2023-08-12T09:37:13;24.30;54.12
65472;DHT22;52068;50.710;14.492;2023-08-12T09:39:40;24.32;53.86
65472;DHT22;52068;50.710;14.492;2023-08-12T09:42:05;24.32;53.66
65472;DHT22;52068;50.710;14.492;2023-08-12T09:44:35;24.27;53.90
65472;DHT22;52068;50.710;14.492;2023-08-12T09:47:00;24.30;53.92
65472;DHT22;52068;50.710;14.492;2023-08-12T09:49:25;24.33;53.91
65472;DHT22;52068;50.710;14.492;2023-08-12T09:51:51;24.34;54.40
65472;DHT22;52068;50.710;14.492;2023-08-12T09:54:17;24.40;53.93
65472;DHT22;52068;50.710;14.492;2023-08-12T09:56:47;24.40;54.19
65472;DHT22;52068;50.710;14.492;2023-08-12T09:59:17;24.39;53.86
65472;DHT22;52068;50.710;14.492;2023-08-12T10:01:44;24.41;53.88
65472;DHT22;52068;50.710;14.492;2023-08-12T10:04:11;24.41;53.67
65472;DHT22;52068;50.710;14.492;2023-08-12T10:06:40;24.43;53.97
65472;DHT22;52068;50.710;14.492;2023-08-12T10:09:06;24.40;53.92
65472;DHT22;52068;50.710;14.492;2023-08-12T10:11:34;24.41;54.46
65472;DHT22;52068;50.710;14.492;2023-08-12T10:14:00;24.43;53.93
65472;DHT22;52068;50.710;14.492;2023-08-12T10:16:28;24.43;53.91
65472;DHT22;52068;50.710;14.492;2023-08-12T10:18:55;24.43;54.20
65472;DHT22;52068;50.710;14.492;2023-08-12T10:21:21;24.41;54.46
65472;DHT22;52068;50.710;14.492;2023-08-12T10:23:48;24.43;54.29
65472;DHT22;52068;50.710;14.492;2023-08-12T10:26:15;24.43;54.11
65472;DHT22;52068;50.710;14.492;2023-08-12T10:28:42;24.44;54.22
65472;DHT22;52068;50.710;14.492;2023-08-12T10:31:07;24.44;54.28
65472;DHT22;52068;50.710;14.492;2023-08-12T10:33:37;24.41;53.92
65472;DHT22;52068;50.710;14.492;2023-08-12T10:36:03;24.43;53.96
65472;DHT22;52068;50.710;14.492;2023-08-12T10:38:28;24.44;54.00
65472;DHT22;52068;50.710;14.492;2023-08-12T10:41:17;24.43;54.10
65472;DHT22;52068;50.710;14.492;2023-08-12T10:49:03;24.47;53.32
65472;DHT22;52068;50.710;14.492;2023-08-12T10:54:16;24.52;53.55
65472;DHT22;52068;50.710;14.492;2023-08-12T11:02:20;24.57;53.03
65472;DHT22;52068;50.710;14.492;2023-08-12T11:04:55;24.60;52.26
65472;DHT22;52068;50.710;14.492;2023-08-12T11:07:48;24.61;52.16
65472;DHT22;52068;50.710;14.492;2023-08-12T11:10:20;24.63;52.40
65472;DHT22;52068;50.710;14.492;2023-08-12T11:15:19;24.61;52.02
65472;DHT22;52068;50.710;14.492;2023-08-12T11:17:54;24.60;52.25
65472;DHT22;52068;50.710;14.492;2023-08-12T11:20:20;24.63;52.66
65472;DHT22;52068;50.710;14.492;2023-08-12T11:22:46;24.57;52.25
65472;DHT22;52068;50.710;14.492;2023-08-12T11:25:12;24.59;52.33
65472;DHT22;52068;50.710;14.492;2023-08-12T11:27:47;24.61;51.91
65472;DHT22;52068;50.710;14.492;2023-08-12T11:30:15;24.63;52.23
65472;DHT22;52068;50.710;14.492;2023-08-12T11:32:45;24.61;51.69
65472;DHT22;52068;50.710;14.492;2023-08-12T11:35:12;24.61;51.83
65472;DHT22;52068;50.710;14.492;2023-08-12T11:37:39;24.61;51.99
65472;DHT22;52068;50.710;14.492;2023-08-12T11:40:06;24.59;51.84
65472;DHT22;52068;50.710;14.492;2023-08-12T11:42:32;24.59;51.94
65472;DHT22;52068;50.710;14.492;2023-08-12T11:44:57;24.63;51.93
65472;DHT22;52068;50.710;14.492;2023-08-12T11:47:23;24.61;52.02
65472;DHT22;52068;50.710;14.492;2023-08-12T11:49:48;24.61;52.00
65472;DHT22;52068;50.710;14.492;2023-08-12T11:52:14;24.59;52.06
65472;DHT22;52068;50.710;14.492;2023-08-12T11:54:40;24.61;52.46
65472;DHT22;52068;50.710;14.492;2023-08-12T11:57:06;24.61;52.17
65472;DHT22;52068;50.710;14.492;2023-08-12T11:59:31;24.63;52.18
65472;DHT22;52068;50.710;14.492;2023-08-12T12:01:56;24.63;52.09
65472;DHT22;52068;50.710;14.492;2023-08-12T12:04:22;24.64;51.88
65472;DHT22;52068;50.710;14.492;2023-08-12T12:06:48;24.65;50.81
65472;DHT22;52068;50.710;14.492;2023-08-12T12:09:13;24.68;51.02
65472;DHT22;52068;50.710;14.492;2023-08-12T12:11:40;24.71;51.06
65472;DHT22;52068;50.710;14.492;2023-08-12T12:14:09;24.70;50.83
65472;DHT22;52068;50.710;14.492;2023-08-12T12:16:39;24.75;51.35
65472;DHT22;52068;50.710;14.492;2023-08-12T12:19:09;24.75;51.11
65472;DHT22;52068;50.710;14.492;2023-08-12T12:21:48;24.75;50.80
65472;DHT22;52068;50.710;14.492;2023-08-12T12:24:14;24.77;51.05
65472;DHT22;52068;50.710;14.492;2023-08-12T12:26:40;24.78;50.79
65472;DHT22;52068;50.710;14.492;2023-08-12T12:29:06;24.78;50.33
65472;DHT22;52068;50.710;14.492;2023-08-12T12:31:36;24.75;50.18
65472;DHT22;52068;50.710;14.492;2023-08-12T12:34:05;24.75;50.75
65472;DHT22;52068;50.710;14.492;2023-08-12T12:36:40;24.77;51.33
65472;DHT22;52068;50.710;14.492;2023-08-12T12:39:06;24.78;50.59
65472;DHT22;52068;50.710;14.492;2023-08-12T12:41:32;24.78;50.78
65472;DHT22;52068;50.710;14.492;2023-08-12T12:44:00;24.80;50.10
65472;DHT22;52068;50.710;14.492;2023-08-12T12:46:26;24.80;50.00
65472;DHT22;52068;50.710;14.492;2023-08-12T12:48:52;24.80;49.88
65472;DHT22;52068;50.710;14.492;2023-08-12T12:51:17;24.77;50.13
65472;DHT22;52068;50.710;14.492;2023-08-12T12:53:42;24.78;50.35
65472;DHT22;52068;50.710;14.492;2023-08-12T12:56:08;24.80;50.49
65472;DHT22;52068;50.710;14.492;2023-08-12T12:58:34;24.81;50.46
65472;DHT22;52068;50.710;14.492;2023-08-12T13:01:00;24.81;50.79
65472;DHT22;52068;50.710;14.492;2023-08-12T13:03:26;24.80;50.70
65472;DHT22;52068;50.710;14.492;2023-08-12T13:05:51;24.83;50.99
65472;DHT22;52068;50.710;14.492;2023-08-12T13:08:17;24.81;51.21
65472;DHT22;52068;50.710;14.492;2023-08-12T13:10:43;24.84;51.18
65472;DHT22;52068;50.710;14.492;2023-08-12T13:13:08;24.84;50.75
65472;DHT22;52068;50.710;14.492;2023-08-12T13:15:35;24.83;50.74
65472;DHT22;52068;50.710;14.492;2023-08-12T13:18:00;24.87;50.85
65472;DHT22;52068;50.710;14.492;2023-08-12T13:20:25;24.85;50.89
65472;DHT22;52068;50.710;14.492;2023-08-12T13:22:51;24.88;50.96
65472;DHT22;52068;50.710;14.492;2023-08-12T13:25:16;24.88;51.07
65472;DHT22;52068;50.710;14.492;2023-08-12T13:27:42;24.91;51.39
65472;DHT22;52068;50.710;14.492;2023-08-12T13:30:08;24.90;51.23
65472;DHT22;52068;50.710;14.492;2023-08-12T13:32:33;24.88;51.19
65472;DHT22;52068;50.710;14.492;2023-08-12T13:34:59;24.90;51.36
65472;DHT22;52068;50.710;14.492;2023-08-12T13:37:24;24.90;51.39
65472;DHT22;52068;50.710;14.492;2023-08-12T13:39:49;24.92;51.28
65472;DHT22;52068;50.710;14.492;2023-08-12T13:42:15;24.96;51.07
65472;DHT22;52068;50.710;14.492;2023-08-12T13:44:40;25.03;50.97
65472;DHT22;52068;50.710;14.492;2023-08-12T13:47:05;25.07;50.87
65472;DHT22;52068;50.710;14.492;2023-08-12T13:49:31;25.15;50.81
65472;DHT22;52068;50.710;14.492;2023-08-12T13:51:57;25.18;50.72
65472;DHT22;52068;50.710;14.492;2023-08-12T13:54:24;25.21;50.65
65472;DHT22;52068;50.710;14.492;2023-08-12T13:56:49;25.25;50.58
65472;DHT22;52068;50.710;14.492;2023-08-12T13:59:15;25.29;50.56
65472;DHT22;52068;50.710;14.492;2023-08-12T14:01:40;25.32;50.55
65472;DHT22;52068;50.710;14.492;2023-08-12T14:04:05;25.36;50.62
65472;DHT22;52068;50.710;14.492;2023-08-12T14:06:31;25.39;50.56
65472;DHT22;52068;50.710;14.492;2023-08-12T14:08:56;25.43;50.57
65472;DHT22;52068;50.710;14.492;2023-08-12T14:11:21;25.49;50.53
65472;DHT22;52068;50.710;14.492;2023-08-12T14:13:47;25.53;50.57
65472;DHT22;52068;50.710;14.492;2023-08-12T14:16:12;25.56;50.46
65472;DHT22;52068;50.710;14.492;2023-08-12T14:18:38;25.59;50.44
65472;DHT22;52068;50.710;14.492;2023-08-12T14:21:03;25.61;50.44
65472;DHT22;52068;50.710;14.492;2023-08-12T14:23:29;25.63;50.51
65472;DHT22;52068;50.710;14.492;2023-08-12T14:25:54;25.62;50.49
65472;DHT22;52068;50.710;14.492;2023-08-12T14:28:20;25.63;50.56
65472;DHT22;52068;50.710;14.492;2023-08-12T14:30:45;25.65;50.60
65472;DHT22;52068;50.710;14.492;2023-08-12T14:33:11;25.63;50.66
65472;DHT22;52068;50.710;14.492;2023-08-12T14:35:36;25.63;50.69
65472;DHT22;52068;50.710;14.492;2023-08-12T14:38:01;25.63;50.67
65472;DHT22;52068;50.710;14.492;2023-08-12T14:40:27;25.62;50.76
65472;DHT22;52068;50.710;14.492;2023-08-12T14:42:52;25.62;50.77
65472;DHT22;52068;50.710;14.492;2023-08-12T14:45:18;25.63;50.82
65472;DHT22;52068;50.710;14.492;2023-08-12T14:47:43;25.62;50.90
65472;DHT22;52068;50.710;14.492;2023-08-12T14:50:09;25.62;50.84
65472;DHT22;52068;50.710;14.492;2023-08-12T14:52:35;25.65;50.81
65472;DHT22;52068;50.710;14.492;2023-08-12T14:55:00;25.66;50.87
65472;DHT22;52068;50.710;14.492;2023-08-12T14:57:26;25.69;50.81
65472;DHT22;52068;50.710;14.492;2023-08-12T14:59:51;25.73;50.82
65472;DHT22;52068;50.710;14.492;2023-08-12T15:02:19;25.76;50.80
65472;DHT22;52068;50.710;14.492;2023-08-12T15:04:45;25.76;50.75
65472;DHT22;52068;50.710;14.492;2023-08-12T15:07:12;25.80;50.76
65472;DHT22;52068;50.710;14.492;2023-08-12T15:09:37;25.84;50.75
65472;DHT22;52068;50.710;14.492;2023-08-12T15:12:03;25.86;50.76
65472;DHT22;52068;50.710;14.492;2023-08-12T15:14:28;25.89;50.71
65472;DHT22;52068;50.710;14.492;2023-08-12T15:16:53;25.89;50.80
65472;DHT22;52068;50.710;14.492;2023-08-12T15:19:19;25.92;50.79
65472;DHT22;52068;50.710;14.492;2023-08-12T15:21:44;25.90;50.87
65472;DHT22;52068;50.710;14.492;2023-08-12T15:24:10;25.92;50.90
65472;DHT22;52068;50.710;14.492;2023-08-12T15:26:35;25.94;50.86
65472;DHT22;52068;50.710;14.492;2023-08-12T15:29:01;25.94;50.85